sensor_id;sensor_type;location;lat;lon;timestamp;pressure;altitude;pressure_sealevel;temperature;humidity
75938;BME280;64615;32.062;34.834;2023-07-29T00:02:20;100107.16;;;28.59;57.90
75938;BME280;64615;32.062;34.834;2023-07-29T00:04:45;100114.25;;;28.60;57.95
75938;BME280;64615;32.062;34.834;2023-07-29T00:07:11;100112.31;;;28.61;57.84
75938;BME280;64615;32.062;34.834;2023-07-29T00:09:36;100105.72;;;28.62;57.76
75938;BME280;64615;32.062;34.834;2023-07-29T00:12:03;100104.09;;;28.61;57.68
75938;BME280;64615;32.062;34.834;2023-07-29T00:14:29;100097.50;;;28.62;58.02
75938;BME280;64615;32.062;34.834;2023-07-29T00:16:55;100099.44;;;28.61;57.82
75938;BME280;64615;32.062;34.834;2023-07-29T00:19:20;100096.69;;;28.61;57.64
75938;BME280;64615;32.062;34.834;2023-07-29T00:21:49;100091.22;;;28.61;57.87
75938;BME280;64615;32.062;34.834;2023-07-29T00:24:14;100089.28;;;28.62;57.78
75938;BME280;64615;32.062;34.834;2023-07-29T00:26:40;100090.88;;;28.63;57.47
75938;BME280;64615;32.062;34.834;2023-07-29T00:29:05;100093.31;;;28.64;57.67
75938;BME280;64615;32.062;34.834;2023-07-29T00:31:31;100090.28;;;28.66;57.71
75938;BME280;64615;32.062;34.834;2023-07-29T00:33:57;100098.19;;;28.68;57.52
75938;BME280;64615;32.062;34.834;2023-07-29T00:36:23;100091.09;;;28.67;57.84
75938;BME280;64615;32.062;34.834;2023-07-29T00:38:49;100097.69;;;28.65;57.61
75938;BME280;64615;32.062;34.834;2023-07-29T00:41:15;100092.19;;;28.65;57.53
75938;BME280;64615;32.062;34.834;2023-07-29T00:43:41;100098.78;;;28.64;57.51
75938;BME280;64615;32.062;34.834;2023-07-29T00:46:08;100099.91;;;28.63;57.87
75938;BME280;64615;32.062;34.834;2023-07-29T00:48:34;100093.31;;;28.64;57.68
75938;BME280;64615;32.062;34.834;2023-07-29T00:51:00;100097.19;;;28.63;57.55
75938;BME280;64615;32.062;34.834;2023-07-29T00:53:26;100093.63;;;28.63;57.78
75938;BME280;64615;32.062;34.834;2023-07-29T00:55:52;100098.00;;;28.64;57.50
75938;BME280;64615;32.062;34.834;2023-07-29T00:58:17;100092.03;;;28.62;57.54
75938;BME280;64615;32.062;34.834;2023-07-29T01:00:43;100095.06;;;28.60;57.66
75938;BME280;64615;32.062;34.834;2023-07-29T01:03:09;100096.50;;;28.58;57.69
75938;BME280;64615;32.062;34.834;2023-07-29T01:11:48;100095.50;;;28.54;57.44
75938;BME280;64615;32.062;34.834;2023-07-29T01:17:02;100098.06;;;28.50;57.76
75938;BME280;64615;32.062;34.834;2023-07-29T01:22:11;100103.03;;;28.48;57.43
75938;BME280;64615;32.062;34.834;2023-07-29T01:24:38;100099.19;;;28.49;57.54
75938;BME280;64615;32.062;34.834;2023-07-29T01:27:04;100092.91;;;28.49;57.53
75938;BME280;64615;32.062;34.834;2023-07-29T01:29:31;100089.06;;;28.50;57.51
75938;BME280;64615;32.062;34.834;2023-07-29T01:32:01;100093.88;;;28.53;57.47
75938;BME280;64615;32.062;34.834;2023-07-29T01:34:44;100094.09;;;28.56;57.43
75938;BME280;64615;32.062;34.834;2023-07-29T01:37:15;100103.94;;;28.57;57.36
75938;BME280;64615;32.062;34.834;2023-07-29T01:39:42;100100.69;;;28.55;57.40
75938;BME280;64615;32.062;34.834;2023-07-29T01:42:11;100101.50;;;28.56;57.21
75938;BME280;64615;32.062;34.834;2023-07-29T01:44:37;100102.63;;;28.55;57.31
75938;BME280;64615;32.062;34.834;2023-07-29T01:47:02;100112.16;;;28.57;57.46
75938;BME280;64615;32.062;34.834;2023-07-29T01:49:28;100114.06;;;28.57;57.26
75938;BME280;64615;32.062;34.834;2023-07-29T01:51:54;100105.03;;;28.56;57.14
75938;BME280;64615;32.062;34.834;2023-07-29T01:54:19;100116.81;;;28.57;57.51
75938;BME280;64615;32.062;34.834;2023-07-29T01:56:45;100109.72;;;28.56;57.29
75938;BME280;64615;32.062;34.834;2023-07-29T01:59:10;100111.13;;;28.53;57.20
75938;BME280;64615;32.062;34.834;2023-07-29T02:01:37;100116.94;;;28.52;57.21
75938;BME280;64615;32.062;34.834;2023-07-29T02:04:02;100113.69;;;28.50;57.40
75938;BME280;64615;32.062;34.834;2023-07-29T02:06:28;100112.88;;;28.49;57.28
75938;BME280;64615;32.062;34.834;2023-07-29T02:08:54;100117.84;;;28.47;57.16
75938;BME280;64615;32.062;34.834;2023-07-29T02:11:20;100114.34;;;28.47;57.35
75938;BME280;64615;32.062;34.834;2023-07-29T02:13:52;100113.53;;;28.46;57.50
75938;BME280;64615;32.062;34.834;2023-07-29T02:16:18;100118.50;;;28.44;57.46
75938;BME280;64615;32.062;34.834;2023-07-29T02:18:44;100123.66;;;28.46;57.46
75938;BME280;64615;32.062;34.834;2023-07-29T02:21:09;100133.28;;;28.43;57.75
75938;BME280;64615;32.062;34.834;2023-07-29T02:23:35;100121.53;;;28.43;57.52
75938;BME280;64615;32.062;34.834;2023-07-29T02:26:00;100124.28;;;28.43;57.48
75938;BME280;64615;32.062;34.834;2023-07-29T02:28:26;100133.00;;;28.45;57.48
75938;BME280;64615;32.062;34.834;2023-07-29T02:31:11;100126.06;;;28.47;57.57
75938;BME280;64615;32.062;34.834;2023-07-29T02:33:37;100131.75;;;28.51;57.38
75938;BME280;64615;32.062;34.834;2023-07-29T02:36:03;100133.38;;;28.52;57.16
75938;BME280;64615;32.062;34.834;2023-07-29T02:38:28;100136.91;;;28.52;57.21
75938;BME280;64615;32.062;34.834;2023-07-29T02:40:54;100138.84;;;28.52;57.21
75938;BME280;64615;32.062;34.834;2023-07-29T02:43:20;100136.13;;;28.52;57.13
75938;BME280;64615;32.062;34.834;2023-07-29T02:45:45;100132.56;;;28.51;57.14
75938;BME280;64615;32.062;34.834;2023-07-29T02:48:11;100131.75;;;28.51;57.19
75938;BME280;64615;32.062;34.834;2023-07-29T02:50:36;100129.81;;;28.51;57.25
75938;BME280;64615;32.062;34.834;2023-07-29T02:53:02;100127.91;;;28.52;57.24
75938;BME280;64615;32.062;34.834;2023-07-29T02:55:28;100135.31;;;28.51;57.16
75938;BME280;64615;32.062;34.834;2023-07-29T02:57:54;100133.97;;;28.49;57.24
75938;BME280;64615;32.062;34.834;2023-07-29T03:00:19;100141.72;;;28.47;57.36
75938;BME280;64615;32.062;34.834;2023-07-29T03:02:45;100137.34;;;28.46;57.01
75938;BME280;64615;32.062;34.834;2023-07-29T03:05:11;100135.72;;;28.45;57.25
75938;BME280;64615;32.062;34.834;2023-07-29T03:07:36;100140.69;;;28.43;57.22
75938;BME280;64615;32.062;34.834;2023-07-29T03:10:02;100139.88;;;28.42;57.21
75938;BME280;64615;32.062;34.834;2023-07-29T03:12:28;100139.41;;;28.40;57.15
75938;BME280;64615;32.062;34.834;2023-07-29T03:14:53;100140.53;;;28.39;57.18
75938;BME280;64615;32.062;34.834;2023-07-29T03:17:19;100145.19;;;28.39;57.17
75938;BME280;64615;32.062;34.834;2023-07-29T03:19:44;100149.53;;;28.40;56.96
75938;BME280;64615;32.062;34.834;2023-07-29T03:22:10;100152.59;;;28.38;57.38
75938;BME280;64615;32.062;34.834;2023-07-29T03:24:36;100150.97;;;28.37;57.01
75938;BME280;64615;32.062;34.834;2023-07-29T03:27:01;100156.44;;;28.37;57.27
75938;BME280;64615;32.062;34.834;2023-07-29T03:29:27;100164.34;;;28.39;57.10
75938;BME280;64615;32.062;34.834;2023-07-29T03:31:52;100159.88;;;28.43;57.11
75938;BME280;64615;32.062;34.834;2023-07-29T03:34:18;100156.53;;;28.46;56.76
75938;BME280;64615;32.062;34.834;2023-07-29T03:36:44;100167.94;;;28.48;56.94
75938;BME280;64615;32.062;34.834;2023-07-29T03:39:11;100161.88;;;28.51;56.77
75938;BME280;64615;32.062;34.834;2023-07-29T03:41:37;100180.53;;;28.49;56.70
75938;BME280;64615;32.062;34.834;2023-07-29T03:44:04;100167.66;;;28.49;56.60
75938;BME280;64615;32.062;34.834;2023-07-29T03:46:29;100173.94;;;28.50;56.74
75938;BME280;64615;32.062;34.834;2023-07-29T03:48:55;100175.06;;;28.49;56.31
75938;BME280;64615;32.062;34.834;2023-07-29T03:51:20;100178.31;;;28.51;56.37
75938;BME280;64615;32.062;34.834;2023-07-29T03:53:47;100182.66;;;28.52;56.27
75938;BME280;64615;32.062;34.834;2023-07-29T03:56:13;100187.81;;;28.53;56.43
75938;BME280;64615;32.062;34.834;2023-07-29T03:58:38;100185.88;;;28.54;55.68
75938;BME280;64615;32.062;34.834;2023-07-29T04:01:04;100190.53;;;28.53;55.71
75938;BME280;64615;32.062;34.834;2023-07-29T04:03:29;100202.81;;;28.56;55.69
75938;BME280;64615;32.062;34.834;2023-07-29T04:05:55;100208.31;;;28.56;55.44
75938;BME280;64615;32.062;34.834;2023-07-29T04:08:21;100205.75;;;28.59;54.72
75938;BME280;64615;32.062;34.834;2023-07-29T04:10:47;100207.66;;;28.59;55.37
75938;BME280;64615;32.062;34.834;2023-07-29T04:13:13;100211.22;;;28.59;55.95
75938;BME280;64615;32.062;34.834;2023-07-29T04:15:38;100218.31;;;28.60;55.64
75938;BME280;64615;32.062;34.834;2023-07-29T04:18:04;100213.34;;;28.62;55.64
75938;BME280;64615;32.062;34.834;2023-07-29T04:20:30;100219.59;;;28.63;55.60
75938;BME280;64615;32.062;34.834;2023-07-29T04:22:55;100222.06;;;28.64;55.59
75938;BME280;64615;32.062;34.834;2023-07-29T04:25:21;100208.34;;;28.64;55.86
75938;BME280;64615;32.062;34.834;2023-07-29T04:27:46;100218.19;;;28.65;55.86
75938;BME280;64615;32.062;34.834;2023-07-29T04:30:12;100210.50;;;28.68;55.71
75938;BME280;64615;32.062;34.834;2023-07-29T04:32:38;100216.16;;;28.71;55.18
75938;BME280;64615;32.062;34.834;2023-07-29T04:35:04;100212.50;;;28.76;55.38
75938;BME280;64615;32.062;34.834;2023-07-29T04:37:29;100219.59;;;28.77;55.15
75938;BME280;64615;32.062;34.834;2023-07-29T04:39:55;100218.16;;;28.79;55.07
75938;BME280;64615;32.062;34.834;2023-07-29T04:42:20;100226.38;;;28.79;55.38
75938;BME280;64615;32.062;34.834;2023-07-29T04:44:46;100232.34;;;28.81;54.97
75938;BME280;64615;32.062;34.834;2023-07-29T04:47:12;100235.91;;;28.82;55.07
75938;BME280;64615;32.062;34.834;2023-07-29T04:49:37;100237.84;;;28.81;55.25
75938;BME280;64615;32.062;34.834;2023-07-29T04:52:03;100239.16;;;28.84;55.28
75938;BME280;64615;32.062;34.834;2023-07-29T04:54:29;100238.00;;;28.85;55.48
75938;BME280;64615;32.062;34.834;2023-07-29T04:56:54;100232.53;;;28.85;55.21
75938;BME280;64615;32.062;34.834;2023-07-29T04:59:20;100232.53;;;28.85;55.50
75938;BME280;64615;32.062;34.834;2023-07-29T05:01:46;100242.06;;;28.87;55.37
75938;BME280;64615;32.062;34.834;2023-07-29T05:04:12;100245.00;;;28.91;55.26
75938;BME280;64615;32.062;34.834;2023-07-29T05:06:38;100234.84;;;28.91;55.11
75938;BME280;64615;32.062;34.834;2023-07-29T05:09:14;100225.38;;;28.97;54.92
75938;BME280;64615;32.062;34.834;2023-07-29T05:11:40;100236.34;;;28.97;55.48
75938;BME280;64615;32.062;34.834;2023-07-29T05:14:05;100236.63;;;28.96;55.29
75938;BME280;64615;32.062;34.834;2023-07-29T05:16:31;100231.16;;;28.96;55.32
75938;BME280;64615;32.062;34.834;2023-07-29T05:18:57;100241.00;;;28.97;55.13
75938;BME280;64615;32.062;34.834;2023-07-29T05:21:23;100234.41;;;28.98;55.34
75938;BME280;64615;32.062;34.834;2023-07-29T05:23:48;100228.13;;;28.97;55.35
75938;BME280;64615;32.062;34.834;2023-07-29T05:26:14;100227.81;;;28.99;55.37
75938;BME280;64615;32.062;34.834;2023-07-29T05:28:40;100235.69;;;29.00;55.21
75938;BME280;64615;32.062;34.834;2023-07-29T05:31:05;100225.75;;;29.04;55.04
75938;BME280;64615;32.062;34.834;2023-07-29T05:33:31;100238.50;;;29.09;55.07
75938;BME280;64615;32.062;34.834;2023-07-29T05:35:56;100230.59;;;29.08;55.05
75938;BME280;64615;32.062;34.834;2023-07-29T05:38:22;100235.25;;;29.07;55.29
75938;BME280;64615;32.062;34.834;2023-07-29T05:40:48;100242.53;;;29.12;55.01
75938;BME280;64615;32.062;34.834;2023-07-29T05:43:14;100234.63;;;29.10;55.27
75938;BME280;64615;32.062;34.834;2023-07-29T05:45:40;100247.41;;;29.15;54.99
75938;BME280;64615;32.062;34.834;2023-07-29T05:48:06;100233.56;;;29.20;55.09
75938;BME280;64615;32.062;34.834;2023-07-29T05:50:31;100235.00;;;29.17;54.91
75938;BME280;64615;32.062;34.834;2023-07-29T05:52:57;100226.81;;;29.26;55.18
75938;BME280;64615;32.062;34.834;2023-07-29T05:55:22;100220.84;;;29.24;55.08
75938;BME280;64615;32.062;34.834;2023-07-29T05:57:48;100228.56;;;29.22;54.95
75938;BME280;64615;32.062;34.834;2023-07-29T06:00:14;100225.22;;;29.25;55.30
75938;BME280;64615;32.062;34.834;2023-07-29T06:02:40;100229.25;;;29.27;55.53
75938;BME280;64615;32.062;34.834;2023-07-29T06:05:08;100230.56;;;29.30;54.77
75938;BME280;64615;32.062;34.834;2023-07-29T06:07:34;100230.34;;;29.26;55.19
75938;BME280;64615;32.062;34.834;2023-07-29T06:10:00;100220.84;;;29.24;55.11
75938;BME280;64615;32.062;34.834;2023-07-29T06:12:26;100220.09;;;29.32;54.95
75938;BME280;64615;32.062;34.834;2023-07-29T06:14:52;100226.50;;;29.27;55.06
75938;BME280;64615;32.062;34.834;2023-07-29T06:17:17;100220.09;;;29.32;55.48
75938;BME280;64615;32.062;34.834;2023-07-29T06:19:43;100224.78;;;29.31;55.45
75938;BME280;64615;32.062;34.834;2023-07-29T06:22:09;100219.09;;;29.28;55.07
75938;BME280;64615;32.062;34.834;2023-07-29T06:24:35;100222.94;;;29.27;55.31
75938;BME280;64615;32.062;34.834;2023-07-29T06:27:01;100224.06;;;29.26;55.28
75938;BME280;64615;32.062;34.834;2023-07-29T06:29:27;100228.78;;;29.25;55.38
75938;BME280;64615;32.062;34.834;2023-07-29T06:31:52;100224.06;;;29.26;55.17
75938;BME280;64615;32.062;34.834;2023-07-29T06:34:19;100225.69;;;29.27;55.58
75938;BME280;64615;32.062;34.834;2023-07-29T06:36:45;100219.72;;;29.25;55.32
75938;BME280;64615;32.062;34.834;2023-07-29T06:39:10;100217.81;;;29.25;55.38
75938;BME280;64615;32.062;34.834;2023-07-29T06:41:36;100224.06;;;29.26;55.66
75938;BME280;64615;32.062;34.834;2023-07-29T06:44:02;100223.75;;;29.27;55.27
75938;BME280;64615;32.062;34.834;2023-07-29T06:46:27;100224.56;;;29.28;55.54
75938;BME280;64615;32.062;34.834;2023-07-29T06:48:53;100223.44;;;29.29;55.62
75938;BME280;64615;32.062;34.834;2023-07-29T06:51:19;100225.69;;;29.27;55.79
75938;BME280;64615;32.062;34.834;2023-07-29T06:53:44;100222.94;;;29.27;55.79
75938;BME280;64615;32.062;34.834;2023-07-29T06:56:10;100228.44;;;29.27;55.68
75938;BME280;64615;32.062;34.834;2023-07-29T06:58:36;100224.06;;;29.26;55.75
75938;BME280;64615;32.062;34.834;2023-07-29T07:01:01;100227.63;;;29.26;55.74
75938;BME280;64615;32.062;34.834;2023-07-29T07:03:28;100223.28;;;29.25;55.87
75938;BME280;64615;32.062;34.834;2023-07-29T07:05:54;100222.47;;;29.25;55.87
75938;BME280;64615;32.062;34.834;2023-07-29T07:08:20;100218.91;;;29.24;56.11
75938;BME280;64615;32.062;34.834;2023-07-29T07:10:47;100207.94;;;29.24;55.93
75938;BME280;64615;32.062;34.834;2023-07-29T07:13:12;100218.91;;;29.24;56.25
75938;BME280;64615;32.062;34.834;2023-07-29T07:15:38;100211.81;;;29.23;56.21
75938;BME280;64615;32.062;34.834;2023-07-29T07:18:04;100201.66;;;29.24;56.25
75938;BME280;64615;32.062;34.834;2023-07-29T07:20:29;100216.19;;;29.24;55.91
75938;BME280;64615;32.062;34.834;2023-07-29T07:22:55;100214.56;;;29.23;56.31
75938;BME280;64615;32.062;34.834;2023-07-29T07:25:21;100209.06;;;29.23;56.17
75938;BME280;64615;32.062;34.834;2023-07-29T07:27:47;100218.09;;;29.24;56.01
75938;BME280;64615;32.062;34.834;2023-07-29T07:30:14;100219.22;;;29.23;56.15
75938;BME280;64615;32.062;34.834;2023-07-29T07:32:40;100219.53;;;29.21;56.14
75938;BME280;64615;32.062;34.834;2023-07-29T07:35:05;100218.25;;;29.19;56.47
75938;BME280;64615;32.062;34.834;2023-07-29T07:37:31;100219.34;;;29.18;56.71
75938;BME280;64615;32.062;34.834;2023-07-29T07:39:57;100215.00;;;29.17;56.88
75938;BME280;64615;32.062;34.834;2023-07-29T07:42:23;100215.34;;;29.15;56.66
75938;BME280;64615;32.062;34.834;2023-07-29T07:44:48;100214.53;;;29.15;57.10
75938;BME280;64615;32.062;34.834;2023-07-29T07:47:14;100204.66;;;29.14;57.19
75938;BME280;64615;32.062;34.834;2023-07-29T07:49:39;100200.31;;;29.13;57.05
75938;BME280;64615;32.062;34.834;2023-07-29T07:52:05;100203.56;;;29.15;57.28
75938;BME280;64615;32.062;34.834;2023-07-29T07:54:31;100206.28;;;29.15;56.84
75938;BME280;64615;32.062;34.834;2023-07-29T07:56:57;100196.44;;;29.14;56.91
75938;BME280;64615;32.062;34.834;2023-07-29T07:59:23;100193.72;;;29.14;56.79
75938;BME280;64615;32.062;34.834;2023-07-29T08:01:48;100202.41;;;29.16;56.71
75938;BME280;64615;32.062;34.834;2023-07-29T08:04:14;100201.28;;;29.17;56.93
75938;BME280;64615;32.062;34.834;2023-07-29T08:06:40;100192.25;;;29.16;57.20
75938;BME280;64615;32.062;34.834;2023-07-29T08:09:05;100199.66;;;29.16;56.82
75938;BME280;64615;32.062;34.834;2023-07-29T08:11:31;100196.63;;;29.17;56.95
75938;BME280;64615;32.062;34.834;2023-07-29T08:13:57;100189.22;;;29.18;57.04
75938;BME280;64615;32.062;34.834;2023-07-29T08:16:23;100191.13;;;29.17;56.92
75938;BME280;64615;32.062;34.834;2023-07-29T08:18:49;100191.13;;;29.17;56.90
75938;BME280;64615;32.062;34.834;2023-07-29T08:21:14;100190.31;;;29.17;57.23
75938;BME280;64615;32.062;34.834;2023-07-29T08:23:40;100189.50;;;29.16;57.17
75938;BME280;64615;32.062;34.834;2023-07-29T08:26:06;100190.03;;;29.18;57.17
75938;BME280;64615;32.062;34.834;2023-07-29T08:28:34;100193.06;;;29.17;57.52
75938;BME280;64615;32.062;34.834;2023-07-29T08:31:00;100188.69;;;29.16;57.18
75938;BME280;64615;32.062;34.834;2023-07-29T08:33:26;100188.22;;;29.14;57.02
75938;BME280;64615;32.062;34.834;2023-07-29T08:35:52;100184.69;;;29.13;57.34
75938;BME280;64615;32.062;34.834;2023-07-29T08:38:18;100178.38;;;29.13;57.57
75938;BME280;64615;32.062;34.834;2023-07-29T08:41:04;100178.38;;;29.13;57.63
75938;BME280;64615;32.062;34.834;2023-07-29T08:43:32;100180.31;;;29.12;57.36
75938;BME280;64615;32.062;34.834;2023-07-29T08:45:59;100182.25;;;29.12;57.62
75938;BME280;64615;32.062;34.834;2023-07-29T08:48:40;100174.31;;;29.10;57.53
75938;BME280;64615;32.062;34.834;2023-07-29T08:51:10;100173.22;;;29.11;58.06
75938;BME280;64615;32.062;34.834;2023-07-29T08:53:37;100172.41;;;29.11;57.74
75938;BME280;64615;32.062;34.834;2023-07-29T08:56:03;100166.91;;;29.11;57.56
75938;BME280;64615;32.062;34.834;2023-07-29T08:58:29;100174.00;;;29.12;58.01
75938;BME280;64615;32.062;34.834;2023-07-29T09:00:55;100166.91;;;29.11;57.67
75938;BME280;64615;32.062;34.834;2023-07-29T09:03:21;100163.06;;;29.12;57.89
75938;BME280;64615;32.062;34.834;2023-07-29T09:05:47;100153.22;;;29.11;57.78
75938;BME280;64615;32.062;34.834;2023-07-29T09:08:13;100154.03;;;29.11;57.99
75938;BME280;64615;32.062;34.834;2023-07-29T09:10:40;100149.34;;;29.12;57.43
75938;BME280;64615;32.062;34.834;2023-07-29T09:13:06;100152.91;;;29.12;57.63
75938;BME280;64615;32.062;34.834;2023-07-29T09:15:34;100153.22;;;29.11;57.56
75938;BME280;64615;32.062;34.834;2023-07-29T09:18:09;100149.34;;;29.12;57.76
75938;BME280;64615;32.062;34.834;2023-07-29T09:20:35;100152.09;;;29.12;57.86
75938;BME280;64615;32.062;34.834;2023-07-29T09:23:01;100145.78;;;29.11;57.59
75938;BME280;64615;32.062;34.834;2023-07-29T09:25:28;100143.88;;;29.12;57.71
75938;BME280;64615;32.062;34.834;2023-07-29T09:28:01;100144.97;;;29.11;58.01
75938;BME280;64615;32.062;34.834;2023-07-29T09:30:27;100142.59;;;29.09;57.90
75938;BME280;64615;32.062;34.834;2023-07-29T09:32:57;100141.78;;;29.09;57.77
75938;BME280;64615;32.062;34.834;2023-07-29T09:35:23;100133.53;;;29.09;58.09
75938;BME280;64615;32.062;34.834;2023-07-29T09:37:50;100131.13;;;29.07;58.02
75938;BME280;64615;32.062;34.834;2023-07-29T09:40:17;100126.75;;;29.06;58.02
75938;BME280;64615;32.062;34.834;2023-07-29T09:42:54;100126.28;;;29.04;57.99
75938;BME280;64615;32.062;34.834;2023-07-29T09:45:29;100128.69;;;29.05;58.01
75938;BME280;64615;32.062;34.834;2023-07-29T09:47:57;100124.34;;;29.04;57.99
75938;BME280;64615;32.062;34.834;2023-07-29T09:50:24;100126.59;;;29.02;57.81
75938;BME280;64615;32.062;34.834;2023-07-29T09:52:51;100124.66;;;29.03;58.36
75938;BME280;64615;32.062;34.834;2023-07-29T09:55:18;100124.66;;;29.03;58.36
75938;BME280;64615;32.062;34.834;2023-07-29T09:57:45;100121.09;;;29.02;58.09
75938;BME280;64615;32.062;34.834;2023-07-29T10:00:11;100120.00;;;29.03;58.09
75938;BME280;64615;32.062;34.834;2023-07-29T10:02:42;100122.72;;;29.03;58.09
75938;BME280;64615;32.062;34.834;2023-07-29T10:05:08;100112.06;;;29.02;58.13
75938;BME280;64615;32.062;34.834;2023-07-29T10:07:36;100117.25;;;29.03;57.99
75938;BME280;64615;32.062;34.834;2023-07-29T10:10:04;100109.03;;;29.03;58.31
75938;BME280;64615;32.062;34.834;2023-07-29T10:12:31;100110.66;;;29.04;58.36
75938;BME280;64615;32.062;34.834;2023-07-29T10:15:05;100109.03;;;29.03;58.05
75938;BME280;64615;32.062;34.834;2023-07-29T10:17:36;100107.91;;;29.04;58.18
75938;BME280;64615;32.062;34.834;2023-07-29T10:20:04;100113.69;;;29.03;58.36
75938;BME280;64615;32.062;34.834;2023-07-29T10:22:42;100104.34;;;29.04;58.27
75938;BME280;64615;32.062;34.834;2023-07-29T10:25:19;100100.81;;;29.03;58.22
75938;BME280;64615;32.062;34.834;2023-07-29T10:27:55;100104.34;;;29.04;58.00
75938;BME280;64615;32.062;34.834;2023-07-29T10:30:21;100102.72;;;29.03;58.19
75938;BME280;64615;32.062;34.834;2023-07-29T10:32:48;100099.19;;;29.02;58.55
75938;BME280;64615;32.062;34.834;2023-07-29T10:35:15;100109.34;;;29.02;58.13
75938;BME280;64615;32.062;34.834;2023-07-29T10:37:42;100094.81;;;29.01;58.42
75938;BME280;64615;32.062;34.834;2023-07-29T10:40:09;100093.19;;;29.00;58.34
75938;BME280;64615;32.062;34.834;2023-07-29T10:42:36;100086.91;;;29.00;58.48
75938;BME280;64615;32.062;34.834;2023-07-29T10:45:21;100094.34;;;28.99;58.68
75938;BME280;64615;32.062;34.834;2023-07-29T10:47:47;100081.75;;;28.98;58.57
75938;BME280;64615;32.062;34.834;2023-07-29T10:50:21;100089.97;;;28.98;58.51
75938;BME280;64615;32.062;34.834;2023-07-29T10:52:52;100090.78;;;28.99;58.47
75938;BME280;64615;32.062;34.834;2023-07-29T10:55:29;100089.16;;;28.98;58.54
75938;BME280;64615;32.062;34.834;2023-07-29T10:58:14;100089.16;;;28.98;58.43
75938;BME280;64615;32.062;34.834;2023-07-29T11:00:45;100085.63;;;28.97;58.67
75938;BME280;64615;32.062;34.834;2023-07-29T11:03:12;100086.13;;;28.99;58.35
75938;BME280;64615;32.062;34.834;2023-07-29T11:05:49;100075.94;;;29.00;58.47
75938;BME280;64615;32.062;34.834;2023-07-29T11:08:29;100080.66;;;28.99;58.67
75938;BME280;64615;32.062;34.834;2023-07-29T11:11:06;100087.25;;;28.98;58.43
75938;BME280;64615;32.062;34.834;2023-07-29T11:13:35;100080.13;;;28.97;58.11
75938;BME280;64615;32.062;34.834;2023-07-29T11:16:01;100083.69;;;28.98;58.63
75938;BME280;64615;32.062;34.834;2023-07-29T11:18:29;100081.25;;;28.96;58.59
75938;BME280;64615;32.062;34.834;2023-07-29T11:20:56;100083.69;;;28.98;58.39
75938;BME280;64615;32.062;34.834;2023-07-29T11:23:33;100080.44;;;28.96;58.48
75938;BME280;64615;32.062;34.834;2023-07-29T11:26:00;100079.31;;;28.97;58.19
75938;BME280;64615;32.062;34.834;2023-07-29T11:28:27;100071.91;;;28.97;58.63
75938;BME280;64615;32.062;34.834;2023-07-29T11:30:57;100071.09;;;28.97;58.29
75938;BME280;64615;32.062;34.834;2023-07-29T11:33:25;100067.56;;;28.96;58.30
75938;BME280;64615;32.062;34.834;2023-07-29T11:35:51;100064.00;;;28.96;58.50
75938;BME280;64615;32.062;34.834;2023-07-29T11:38:18;100074.97;;;28.96;58.48
75938;BME280;64615;32.062;34.834;2023-07-29T11:40:56;100073.34;;;28.95;58.37
75938;BME280;64615;32.062;34.834;2023-07-29T11:43:22;100075.28;;;28.94;58.48
75938;BME280;64615;32.062;34.834;2023-07-29T11:45:48;100071.09;;;28.97;58.35
75938;BME280;64615;32.062;34.834;2023-07-29T11:48:13;100074.16;;;28.95;58.62
75938;BME280;64615;32.062;34.834;2023-07-29T11:50:39;100075.28;;;28.94;58.69
75938;BME280;64615;32.062;34.834;2023-07-29T11:53:05;100072.53;;;28.94;58.78
75938;BME280;64615;32.062;34.834;2023-07-29T11:55:31;100066.28;;;28.94;58.58
75938;BME280;64615;32.062;34.834;2023-07-29T11:57:58;100069.00;;;28.94;58.65
75938;BME280;64615;32.062;34.834;2023-07-29T12:00:25;100082.38;;;28.95;58.34
75938;BME280;64615;32.062;34.834;2023-07-29T12:02:51;100076.91;;;28.95;58.72
75938;BME280;64615;32.062;34.834;2023-07-29T12:05:18;100074.97;;;28.96;58.35
75938;BME280;64615;32.062;34.834;2023-07-29T12:07:44;100072.22;;;28.96;58.64
75938;BME280;64615;32.062;34.834;2023-07-29T12:10:11;100071.41;;;28.95;58.44
75938;BME280;64615;32.062;34.834;2023-07-29T12:12:47;100076.91;;;28.95;58.49
75938;BME280;64615;32.062;34.834;2023-07-29T12:15:12;100074.16;;;28.95;58.38
75938;BME280;64615;32.062;34.834;2023-07-29T12:17:42;100071.91;;;28.97;58.50
75938;BME280;64615;32.062;34.834;2023-07-29T12:20:09;100073.03;;;28.96;58.45
75938;BME280;64615;32.062;34.834;2023-07-29T12:22:35;100069.19;;;28.97;58.38
75938;BME280;64615;32.062;34.834;2023-07-29T12:25:02;100068.38;;;28.97;58.68
75938;BME280;64615;32.062;34.834;2023-07-29T12:27:30;100068.38;;;28.97;58.34
75938;BME280;64615;32.062;34.834;2023-07-29T12:29:57;100073.84;;;28.97;58.55
75938;BME280;64615;32.062;34.834;2023-07-29T12:32:25;100071.91;;;28.97;58.42
75938;BME280;64615;32.062;34.834;2023-07-29T12:34:53;100071.09;;;28.97;58.60
75938;BME280;64615;32.062;34.834;2023-07-29T12:37:19;100076.28;;;28.98;58.33
75938;BME280;64615;32.062;34.834;2023-07-29T12:39:44;100080.66;;;28.99;58.50
75938;BME280;64615;32.062;34.834;2023-07-29T12:42:10;100070.78;;;28.98;58.73
75938;BME280;64615;32.062;34.834;2023-07-29T12:44:37;100066.94;;;28.99;58.35
75938;BME280;64615;32.062;34.834;2023-07-29T12:47:05;100075.16;;;28.99;58.25
75938;BME280;64615;32.062;34.834;2023-07-29T12:49:31;100064.97;;;29.00;58.41
75938;BME280;64615;32.062;34.834;2023-07-29T12:51:57;100071.28;;;29.00;58.43